Time;durP1;ratioP1;P1;durP2;ratioP2;P2;SDS_P1;SDS_P2;PMS_P1;PMS_P2;Temp;Humidity;BMP_temperature;BMP_pressure;BME280_temperature;BME280_humidity;BME280_pressure;Samples;Min_cycle;Max_cycle;Signal;HPM_P1;HPM_P2
2021/03/09 00:00:42;;;;;;;52.33;20.40;;;;;;;-1.64;57.25;95769.06;5091117;28;20268;-64
2021/03/09 00:03:09;;;;;;;48.87;20.17;;;;;;;-1.55;56.97;95770.34;5090932;28;20230;-65
2021/03/09 00:05:36;;;;;;;53.00;21.20;;;;;;;-1.71;57.92;95771.66;5090935;28;20203;-64
2021/03/09 00:08:03;;;;;;;58.90;24.73;;;;;;;-1.62;57.75;95769.63;5090780;28;20285;-64
2021/03/09 00:10:30;;;;;;;70.70;26.67;;;;;;;-1.66;58.34;95768.50;5090622;28;20612;-63
2021/03/09 00:12:56;;;;;;;101.43;33.83;;;;;;;-1.85;60.10;95771.00;5090832;28;20279;-63
2021/03/09 00:15:23;;;;;;;51.50;22.13;;;;;;;-1.84;59.87;95764.91;5091057;28;20804;-64
2021/03/09 00:17:51;;;;;;;47.67;21.07;;;;;;;-1.66;61.67;95764.16;5091132;28;20202;-64
2021/03/09 00:20:18;;;;;;;51.90;22.20;;;;;;;-1.59;62.36;95764.88;5090927;28;20542;-64
2021/03/09 00:22:45;;;;;;;57.07;21.20;;;;;;;-1.54;64.10;95771.88;5090648;28;20230;-63
2021/03/09 00:25:12;;;;;;;53.57;22.80;;;;;;;-1.58;65.51;95774.09;5090632;28;20256;-64
2021/03/09 00:27:39;;;;;;;43.63;20.23;;;;;;;-1.45;65.52;95771.44;5090547;28;20226;-64
2021/03/09 00:30:07;;;;;;;49.40;23.57;;;;;;;-1.41;64.95;95766.69;5090481;28;20290;-63
2021/03/09 00:32:34;;;;;;;52.17;21.97;;;;;;;-1.31;65.38;95772.06;5090528;28;20310;-63
2021/03/09 00:35:02;;;;;;;49.43;21.33;;;;;;;-1.39;65.67;95770.56;5090436;28;20246;-63
2021/03/09 00:37:29;;;;;;;68.83;25.77;;;;;;;-1.51;66.11;95771.47;5090747;28;20569;-64
2021/03/09 00:39:56;;;;;;;70.77;26.40;;;;;;;-1.77;65.52;95772.50;5090458;28;20578;-63
2021/03/09 00:42:23;;;;;;;57.00;24.77;;;;;;;-1.87;66.05;95778.06;5090463;28;20234;-63
2021/03/09 00:44:50;;;;;;;47.67;22.20;;;;;;;-2.00;65.20;95775.63;5089993;28;20227;-62
2021/03/09 00:47:17;;;;;;;49.97;22.60;;;;;;;-2.21;65.37;95774.22;5090294;28;20633;-63
2021/03/09 00:49:43;;;;;;;53.00;21.60;;;;;;;-2.37;65.47;95771.38;5090241;28;20199;-63
2021/03/09 00:52:11;;;;;;;52.27;23.10;;;;;;;-2.54;66.21;95762.69;5090353;28;20243;-64
2021/03/09 00:54:39;;;;;;;47.00;20.30;;;;;;;-2.59;66.26;95770.16;5090234;28;20204;-62
2021/03/09 00:57:06;;;;;;;43.87;19.07;;;;;;;-2.60;67.00;95769.38;5090057;28;20194;-63
2021/03/09 00:59:33;;;;;;;44.50;20.27;;;;;;;-2.64;67.45;95766.44;5089913;28;20451;-64
2021/03/09 01:02:02;;;;;;;43.30;19.83;;;;;;;-2.62;67.81;95763.69;5090479;28;20314;-61
2021/03/09 01:04:30;;;;;;;46.63;21.10;;;;;;;-2.62;67.97;95759.38;5094369;28;20229;-63
2021/03/09 01:06:57;;;;;;;47.73;21.30;;;;;;;-2.60;67.91;95761.72;5094361;28;20195;-62
2021/03/09 01:09:26;;;;;;;42.13;19.73;;;;;;;-2.83;68.41;95758.91;5094196;28;20245;-62
2021/03/09 01:11:52;;;;;;;46.47;18.93;;;;;;;-2.83;68.35;95767.31;5094307;28;20549;-63
2021/03/09 01:14:19;;;;;;;44.87;19.77;;;;;;;-2.90;68.14;95758.16;5094676;28;20711;-61
2021/03/09 01:16:46;;;;;;;42.53;19.77;;;;;;;-2.82;68.14;95761.25;5094182;28;20675;-63
2021/03/09 01:19:13;;;;;;;50.50;21.40;;;;;;;-2.72;67.66;95761.59;5094051;28;20281;-62
2021/03/09 01:21:40;;;;;;;50.00;20.57;;;;;;;-2.76;68.40;95762.97;5094085;28;20283;-62
2021/03/09 01:24:09;;;;;;;53.70;22.50;;;;;;;-2.80;69.05;95761.84;5093965;28;20268;-62
2021/03/09 01:26:36;;;;;;;40.23;17.93;;;;;;;-2.65;69.22;95761.56;5094538;28;20203;-61
2021/03/09 01:29:03;;;;;;;36.53;15.13;;;;;;;-2.77;70.12;95758.09;5094135;28;20238;-62
2021/03/09 01:31:31;;;;;;;28.27;13.73;;;;;;;-2.77;71.33;95758.09;5094255;28;20205;-63
2021/03/09 01:33:58;;;;;;;29.97;15.77;;;;;;;-2.74;72.10;95755.91;5093970;28;20213;-63
2021/03/09 01:36:24;;;;;;;37.10;16.50;;;;;;;-2.76;71.53;95755.34;5093758;28;20629;-63
2021/03/09 01:38:51;;;;;;;35.53;16.30;;;;;;;-2.75;71.98;95772.19;5093605;28;20240;-63
2021/03/09 01:41:18;;;;;;;42.27;19.00;;;;;;;-2.74;73.49;95771.16;5093626;28;20229;-63
2021/03/09 01:43:46;;;;;;;34.27;16.80;;;;;;;-2.77;73.19;95763.97;5093900;28;20230;-62
2021/03/09 01:46:16;;;;;;;44.27;18.00;;;;;;;-2.72;73.02;95768.44;5093912;28;20216;-63
2021/03/09 01:48:47;;;;;;;41.90;18.07;;;;;;;-2.71;73.55;95765.69;5093591;28;20201;-63
2021/03/09 01:51:16;;;;;;;42.63;18.50;;;;;;;-2.68;72.72;95760.19;5093559;28;20688;-63
2021/03/09 01:53:44;;;;;;;40.90;19.03;;;;;;;-2.61;71.79;95763.50;5093393;28;20253;-63
2021/03/09 01:56:11;;;;;;;43.03;18.57;;;;;;;-2.63;72.37;95770.53;5093228;28;20664;-63
2021/03/09 01:58:42;;;;;;;43.03;19.40;;;;;;;-2.61;73.52;95773.66;5093530;28;20226;-62
2021/03/09 02:01:10;;;;;;;41.30;18.07;;;;;;;-2.68;74.18;95767.81;5093046;28;20739;-63
2021/03/09 02:03:37;;;;;;;44.07;18.87;;;;;;;-2.70;73.44;95767.25;5093168;28;20325;-64
2021/03/09 02:06:05;;;;;;;36.53;17.47;;;;;;;-2.66;74.25;95773.50;5093213;28;20225;-62
2021/03/09 02:08:32;;;;;;;43.83;21.03;;;;;;;-2.68;73.93;95765.28;5093682;28;20203;-63
2021/03/09 02:11:00;;;;;;;47.47;19.47;;;;;;;-2.75;73.82;95772.19;5093060;28;20269;-63
2021/03/09 02:13:45;;;;;;;54.57;21.83;;;;;;;-2.82;74.83;95765.53;5092461;28;20669;-63
2021/03/09 02:16:22;;;;;;;41.33;18.27;;;;;;;-2.75;74.28;95769.63;5093203;28;20207;-63
2021/03/09 02:19:00;;;;;;;39.87;18.57;;;;;;;-2.63;73.83;95757.03;5092925;28;20202;-63
2021/03/09 02:22:00;;;;;;;49.27;20.13;;;;;;;-2.65;74.15;95759.81;5093079;28;20195;-63
2021/03/09 02:25:01;;;;;;;44.90;20.63;;;;;;;-2.57;73.72;95766.41;5092700;28;20230;-63
2021/03/09 02:27:35;;;;;;;56.37;23.47;;;;;;;-2.64;73.82;95766.44;5091154;28;20204;-62
2021/03/09 02:30:25;;;;;;;52.50;23.23;;;;;;;-2.59;73.23;95765.84;5093136;28;20198;-63
2021/03/09 02:33:00;;;;;;;70.67;30.30;;;;;;;-2.53;73.43;95767.53;5092696;28;20285;-62
2021/03/09 02:35:28;;;;;;;41.63;20.40;;;;;;;-2.70;73.89;95767.25;5092655;28;20320;-62
2021/03/09 02:38:00;;;;;;;40.37;20.00;;;;;;;-2.73;74.03;95770.19;5092828;28;20209;-63
2021/03/09 02:40:29;;;;;;;44.23;20.13;;;;;;;-2.73;75.32;95772.72;5092503;28;20248;-63
2021/03/09 02:43:01;;;;;;;38.90;19.07;;;;;;;-2.61;74.05;95765.25;5092387;28;20221;-62
2021/03/09 02:45:31;;;;;;;37.47;17.53;;;;;;;-2.42;73.73;95777.06;5092616;28;20769;-62
2021/03/09 02:48:00;;;;;;;31.10;15.07;;;;;;;-2.34;73.52;95783.69;5092483;28;20278;-62
2021/03/09 02:50:32;;;;;;;37.93;14.97;;;;;;;-2.33;74.03;95787.78;5092301;28;20281;-63
2021/03/09 02:53:04;;;;;;;34.10;16.33;;;;;;;-2.24;72.43;95787.31;5092541;28;20217;-63
2021/03/09 02:55:33;;;;;;;36.83;15.77;;;;;;;-2.28;72.63;95788.72;5092482;28;20232;-63
2021/03/09 02:58:00;;;;;;;35.23;15.67;;;;;;;-2.27;73.00;95782.66;5092186;28;20205;-62
2021/03/09 03:00:27;;;;;;;34.60;16.00;;;;;;;-2.19;73.25;95784.16;5091879;28;20285;-62
2021/03/09 03:02:58;;;;;;;32.70;16.33;;;;;;;-2.28;73.75;95791.28;5092692;28;20211;-62
2021/03/09 03:05:25;;;;;;;39.77;16.47;;;;;;;-2.61;74.12;95785.59;5092367;28;20234;-63
2021/03/09 03:07:53;;;;;;;39.83;16.73;;;;;;;-2.57;74.74;95786.75;5091998;28;20203;-64
2021/03/09 03:10:21;;;;;;;41.17;16.93;;;;;;;-2.57;74.98;95786.75;5092032;28;20651;-62
2021/03/09 03:12:50;;;;;;;39.40;17.60;;;;;;;-2.51;74.64;95783.41;5091810;28;20235;-64
2021/03/09 03:15:18;;;;;;;46.57;17.97;;;;;;;-2.53;75.25;95787.09;5091744;28;20580;-62
2021/03/09 03:17:47;;;;;;;38.60;16.80;;;;;;;-2.49;74.57;95780.66;5092377;28;20209;-64
2021/03/09 03:20:18;;;;;;;39.27;18.07;;;;;;;-2.45;74.67;95792.75;5091663;28;20222;-63
2021/03/09 03:22:48;;;;;;;41.90;18.27;;;;;;;-2.44;74.11;95789.22;5091829;28;20281;-64
2021/03/09 03:25:16;;;;;;;46.17;18.63;;;;;;;-2.39;75.36;95788.63;5091540;28;20238;-63
2021/03/09 03:27:46;;;;;;;34.77;16.40;;;;;;;-2.45;74.97;95791.97;5091414;28;20286;-63
2021/03/09 03:30:15;;;;;;;41.83;17.33;;;;;;;-2.56;74.84;95792.63;5091711;28;20282;-63
2021/03/09 03:32:42;;;;;;;37.03;18.07;;;;;;;-2.59;74.68;95782.84;5091616;28;20701;-63
2021/03/09 03:35:12;;;;;;;55.40;25.13;;;;;;;-2.58;74.93;95789.47;5091516;28;20198;-63
2021/03/09 03:37:40;;;;;;;63.33;27.60;;;;;;;-2.57;75.71;95796.13;5091348;28;20234;-63
2021/03/09 03:40:10;;;;;;;64.63;28.50;;;;;;;-2.46;76.29;95798.03;5091308;28;20627;-63
2021/03/09 03:42:38;;;;;;;62.97;25.20;;;;;;;-2.38;76.02;95797.78;5091521;28;20687;-63
2021/03/09 03:45:06;;;;;;;56.97;25.67;;;;;;;-2.47;75.62;95792.16;5091020;28;20226;-63
2021/03/09 03:47:34;;;;;;;48.60;22.03;;;;;;;-2.77;75.84;95802.09;5091255;28;20220;-62
2021/03/09 03:50:01;;;;;;;43.40;20.00;;;;;;;-2.99;76.35;95805.13;5091270;28;20224;-64
2021/03/09 03:52:36;;;;;;;39.17;19.93;;;;;;;-3.12;77.02;95808.47;5091068;28;20232;-64
2021/03/09 03:55:17;;;;;;;41.83;19.93;;;;;;;-3.00;77.94;95806.88;5091018;28;20623;-63
2021/03/09 03:57:48;;;;;;;47.13;19.63;;;;;;;-3.01;76.81;95802.00;5091044;28;20218;-63
2021/03/09 04:00:18;;;;;;;44.00;18.90;;;;;;;-3.09;78.02;95803.75;5091357;28;20239;-63
2021/03/09 04:02:46;;;;;;;45.77;18.87;;;;;;;-3.00;77.71;95796.72;5090865;28;20206;-63
2021/03/09 04:05:14;;;;;;;45.53;18.60;;;;;;;-2.90;78.86;95804.72;5090916;28;20715;-63
2021/03/09 04:07:42;;;;;;;40.87;20.17;;;;;;;-2.85;77.85;95799.78;5091007;28;20205;-63
2021/03/09 04:10:11;;;;;;;37.53;19.77;;;;;;;-2.85;78.37;95799.00;5090832;28;20740;-64
2021/03/09 04:12:39;;;;;;;44.80;19.73;;;;;;;-2.79;78.71;95803.31;5090777;28;20677;-64
2021/03/09 04:15:09;;;;;;;41.20;18.90;;;;;;;-2.90;79.29;95807.25;5090215;28;20262;-64
2021/03/09 04:17:36;;;;;;;42.00;19.60;;;;;;;-2.79;78.94;95816.75;5090429;28;20608;-63
2021/03/09 04:20:06;;;;;;;44.77;19.67;;;;;;;-2.86;79.09;95823.66;5090477;28;20249;-64
2021/03/09 04:22:34;;;;;;;42.20;19.60;;;;;;;-2.80;78.75;95822.84;5090235;28;20306;-64
2021/03/09 04:25:01;;;;;;;48.07;21.33;;;;;;;-2.71;77.99;95825.94;5090064;28;20245;-64
2021/03/09 04:27:31;;;;;;;39.17;19.47;;;;;;;-2.78;78.80;95820.88;5090218;28;20281;-64
2021/03/09 04:30:00;;;;;;;37.43;17.43;;;;;;;-3.02;79.88;95829.19;5090225;28;20201;-63
2021/03/09 04:32:27;;;;;;;37.93;17.40;;;;;;;-3.13;79.25;95837.41;5090168;28;20667;-64
2021/03/09 04:34:56;;;;;;;48.20;20.40;;;;;;;-3.14;79.95;95838.41;5090340;28;20191;-63
2021/03/09 04:37:24;;;;;;;81.70;27.73;;;;;;;-3.07;79.91;95822.16;5090018;28;20224;-63
2021/03/09 04:39:52;;;;;;;66.03;25.23;;;;;;;-3.01;79.43;95824.88;5090241;28;20239;-64
2021/03/09 04:42:19;;;;;;;56.00;22.57;;;;;;;-3.12;79.92;95831.34;5089910;28;20232;-62
2021/03/09 04:44:47;;;;;;;41.40;20.30;;;;;;;-3.27;79.81;95834.13;5089912;28;20237;-64
2021/03/09 04:47:14;;;;;;;37.40;17.77;;;;;;;-3.13;80.93;95832.31;5089935;28;20247;-63
2021/03/09 04:49:41;;;;;;;42.10;18.77;;;;;;;-3.14;79.36;95835.88;5089718;28;20334;-64
2021/03/09 04:52:08;;;;;;;44.00;19.80;;;;;;;-3.12;79.19;95829.59;5090133;28;20234;-63
2021/03/09 04:54:35;;;;;;;37.53;18.13;;;;;;;-3.20;80.25;95836.66;5090205;28;20279;-64
2021/03/09 04:57:02;;;;;;;40.73;17.63;;;;;;;-3.17;80.39;95838.78;5089966;28;20200;-64
2021/03/09 04:59:29;;;;;;;43.43;19.20;;;;;;;-3.27;80.10;95839.19;5090041;28;20260;-64
2021/03/09 05:01:57;;;;;;;40.87;19.10;;;;;;;-3.21;81.02;95842.72;5090043;28;20293;-63
2021/03/09 05:04:26;;;;;;;47.53;20.57;;;;;;;-3.22;80.13;95834.31;5089763;28;20282;-63
2021/03/09 05:06:53;;;;;;;49.77;21.47;;;;;;;-3.15;80.64;95824.13;5090034;28;20251;-63
2021/03/09 05:09:20;;;;;;;46.47;20.43;;;;;;;-3.16;80.28;95820.03;5089954;28;20189;-63
2021/03/09 05:11:47;;;;;;;41.90;21.77;;;;;;;-2.97;80.59;95816.66;5090111;28;20606;-63
2021/03/09 05:14:13;;;;;;;50.73;24.63;;;;;;;-2.83;79.67;95814.81;5089917;28;20338;-64
2021/03/09 05:16:40;;;;;;;54.13;27.87;;;;;;;-2.68;79.91;95821.22;5090001;28;20282;-64
2021/03/09 05:19:08;;;;;;;50.63;26.27;;;;;;;-2.49;79.66;95818.81;5090079;28;20197;-65
2021/03/09 05:21:35;;;;;;;56.40;26.23;;;;;;;-2.24;80.02;95817.06;5090241;28;20204;-63
2021/03/09 05:24:02;;;;;;;52.03;25.40;;;;;;;-2.01;79.86;95824.97;5089682;28;20805;-63
2021/03/09 05:26:29;;;;;;;60.53;26.80;;;;;;;-1.79;78.82;95831.25;5090055;28;20279;-63
2021/03/09 05:28:56;;;;;;;86.73;32.57;;;;;;;-1.65;79.64;95831.19;5089704;28;20747;-64
2021/03/09 05:31:23;;;;;;;275.53;93.67;;;;;;;-1.48;78.72;95830.44;5089593;28;20256;-63
2021/03/09 05:33:50;;;;;;;196.50;72.23;;;;;;;-1.52;79.49;95836.16;5089675;28;20195;-63
2021/03/09 05:36:18;;;;;;;255.23;90.13;;;;;;;-1.31;79.70;95833.25;5089737;28;20700;-63
2021/03/09 05:38:45;;;;;;;189.33;66.00;;;;;;;-1.14;78.47;95830.91;5089664;28;20683;-62
2021/03/09 05:41:13;;;;;;;149.17;53.67;;;;;;;-1.00;78.03;95829.81;5089698;28;20670;-63
2021/03/09 05:43:40;;;;;;;132.07;50.40;;;;;;;-0.90;77.19;95837.75;5089356;28;20314;-65
2021/03/09 05:46:08;;;;;;;84.47;37.40;;;;;;;-0.78;74.99;95832.69;5089736;28;20219;-65
2021/03/09 05:48:36;;;;;;;65.87;28.43;;;;;;;-0.77;74.72;95839.34;5089505;28;20753;-65
2021/03/09 05:51:05;;;;;;;32.47;17.07;;;;;;;-0.83;76.12;95835.09;5093233;28;20195;-63
2021/03/09 05:53:33;;;;;;;36.60;16.67;;;;;;;-0.78;76.86;95838.56;5093732;28;20195;-62
2021/03/09 05:56:00;;;;;;;30.07;16.20;;;;;;;-0.78;76.93;95837.78;5093536;28;20303;-63
2021/03/09 05:58:28;;;;;;;30.80;15.50;;;;;;;-0.62;75.40;95832.13;5093565;28;20202;-63
2021/03/09 06:00:56;;;;;;;30.07;16.53;;;;;;;-0.55;74.20;95837.94;5093106;28;20231;-64
2021/03/09 06:03:25;;;;;;;36.83;18.70;;;;;;;-0.13;73.87;95831.88;5093603;28;20188;-64
2021/03/09 06:05:53;;;;;;;152.47;46.00;;;;;;;0.42;70.59;95841.88;5093399;28;20192;-64
2021/03/09 06:08:20;;;;;;;59.93;30.97;;;;;;;0.99;66.60;95844.66;5093300;28;20312;-65
2021/03/09 06:10:49;;;;;;;58.00;31.73;;;;;;;1.52;65.24;95852.13;5092823;28;20203;-65
2021/03/09 06:13:34;;;;;;;47.53;25.97;;;;;;;2.32;62.43;95860.47;5093014;28;20191;-64
2021/03/09 06:16:01;;;;;;;45.07;21.57;;;;;;;3.28;58.72;95856.72;5092870;28;20196;-63
2021/03/09 06:18:28;;;;;;;41.57;21.90;;;;;;;3.83;55.61;95848.09;5093409;28;20260;-63
2021/03/09 06:21:12;;;;;;;45.07;22.60;;;;;;;3.87;55.46;95846.59;5092704;28;20704;-64
2021/03/09 06:23:40;;;;;;;35.17;19.53;;;;;;;3.42;56.71;95859.72;5092712;28;20310;-64
2021/03/09 06:26:38;;;;;;;63.83;22.87;;;;;;;3.12;58.49;95862.66;5092731;28;20295;-64
2021/03/09 06:29:12;;;;;;;31.07;17.23;;;;;;;3.23;60.33;95872.06;5092691;28;20287;-64
2021/03/09 06:31:40;;;;;;;35.97;17.37;;;;;;;3.44;58.86;95879.00;5092643;28;20290;-65
2021/03/09 06:34:24;;;;;;;29.63;16.13;;;;;;;3.57;57.83;95867.59;5092637;28;20188;-65
2021/03/09 06:37:09;;;;;;;24.93;14.07;;;;;;;3.41;58.78;95864.06;5092483;28;20192;-64
2021/03/09 06:39:54;;;;;;;43.83;17.13;;;;;;;3.36;58.01;95864.00;5092555;28;20200;-65
2021/03/09 06:42:24;;;;;;;36.27;16.20;;;;;;;3.27;59.56;95857.72;5092325;28;20276;-65
2021/03/09 06:44:57;;;;;;;35.37;16.97;;;;;;;3.16;60.30;95871.44;5092113;28;20330;-65
2021/03/09 06:47:41;;;;;;;36.63;16.73;;;;;;;3.14;60.01;95868.31;5092502;28;20634;-65
2021/03/09 06:50:12;;;;;;;47.70;19.47;;;;;;;3.14;60.03;95872.72;5092622;28;20270;-65
2021/03/09 06:52:39;;;;;;;59.17;21.77;;;;;;;3.21;59.82;95868.94;5092093;28;20195;-64
2021/03/09 06:55:08;;;;;;;40.07;19.40;;;;;;;3.28;58.75;95879.84;5092053;28;20196;-63
2021/03/09 06:57:37;;;;;;;63.97;31.30;;;;;;;3.44;57.85;95879.00;5092096;28;20204;-65
2021/03/09 07:00:06;;;;;;;42.20;20.90;;;;;;;3.48;56.87;95884.44;5091695;28;20260;-65
2021/03/09 07:02:33;;;;;;;43.30;20.93;;;;;;;3.56;57.43;95885.81;5091767;28;20711;-65
2021/03/09 07:05:05;;;;;;;47.03;24.83;;;;;;;3.75;59.20;95880.13;5092037;28;20223;-65
2021/03/09 07:07:34;;;;;;;58.40;29.17;;;;;;;3.88;58.28;95871.28;5092125;28;20282;-65
2021/03/09 07:10:04;;;;;;;56.13;28.57;;;;;;;4.06;55.85;95877.88;5091838;28;20608;-66
2021/03/09 07:12:31;;;;;;;60.97;29.47;;;;;;;4.12;56.12;95874.34;5091680;28;20249;-64
2021/03/09 07:15:00;;;;;;;45.77;25.90;;;;;;;4.34;55.12;95873.25;5091981;28;20200;-64
2021/03/09 07:17:28;;;;;;;51.87;25.03;;;;;;;4.55;55.58;95876.00;5092077;28;20282;-64
2021/03/09 07:19:56;;;;;;;42.90;23.07;;;;;;;4.75;55.20;95878.72;5091656;28;20282;-64
2021/03/09 07:22:24;;;;;;;48.93;24.50;;;;;;;4.94;54.31;95887.63;5091700;28;20695;-64
2021/03/09 07:25:11;;;;;;;47.87;22.83;;;;;;;4.99;51.55;95885.09;5091529;28;20702;-63
2021/03/09 07:27:45;;;;;;;32.57;18.13;;;;;;;5.10;52.89;95881.56;5091583;28;20196;-64
2021/03/09 07:30:15;;;;;;;39.13;19.20;;;;;;;5.23;53.21;95879.56;5091507;28;20196;-63
2021/03/09 07:32:47;;;;;;;46.50;22.67;;;;;;;5.48;52.98;95877.13;5091517;28;20279;-64
2021/03/09 07:35:15;;;;;;;34.03;19.27;;;;;;;5.78;52.72;95876.47;5091439;28;20275;-64
2021/03/09 07:37:43;;;;;;;47.87;22.63;;;;;;;5.96;52.79;95873.44;5091495;28;20192;-64
2021/03/09 07:40:12;;;;;;;38.43;20.20;;;;;;;6.19;52.22;95872.19;5091823;28;20204;-64
2021/03/09 07:42:39;;;;;;;40.73;20.77;;;;;;;6.40;51.26;95876.34;5091711;28;20225;-64
2021/03/09 07:45:10;;;;;;;31.50;17.83;;;;;;;6.35;49.82;95878.94;5091469;28;20227;-64
2021/03/09 07:47:45;;;;;;;34.47;18.53;;;;;;;6.21;49.86;95877.88;5091202;28;20679;-63
2021/03/09 07:50:14;;;;;;;43.60;20.53;;;;;;;6.29;48.33;95867.81;5091219;28;20200;-63
2021/03/09 07:53:04;;;;;;;34.80;17.53;;;;;;;6.49;48.49;95862.69;5091113;28;20297;-64
2021/03/09 07:55:32;;;;;;;38.20;19.27;;;;;;;6.77;49.44;95863.97;5090943;28;20674;-63
2021/03/09 07:58:19;;;;;;;35.40;19.50;;;;;;;6.55;49.05;95855.72;5090741;28;20237;-63
2021/03/09 08:00:58;;;;;;;30.70;17.53;;;;;;;6.37;49.34;95851.06;5090903;28;20314;-64
2021/03/09 08:03:28;;;;;;;35.57;19.07;;;;;;;6.49;49.40;95849.00;5091422;28;20650;-64
2021/03/09 08:05:56;;;;;;;24.97;15.50;;;;;;;6.62;49.12;95853.66;5092021;28;20191;-64
2021/03/09 08:08:40;;;;;;;24.40;14.83;;;;;;;6.86;48.65;95851.31;5091844;28;20238;-64
2021/03/09 08:11:09;;;;;;;35.57;15.83;;;;;;;7.06;46.85;95840.94;5091752;28;20203;-63
2021/03/09 08:13:36;;;;;;;32.50;16.03;;;;;;;7.18;46.72;95838.06;5090246;28;20196;-62
2021/03/09 08:16:33;;;;;;;31.80;16.20;;;;;;;7.43;47.17;95837.97;5090935;28;20990;-64
2021/03/09 08:19:05;;;;;;;26.73;14.63;;;;;;;7.75;44.89;95833.19;5090776;28;20203;-64
2021/03/09 08:21:53;;;;;;;28.37;15.40;;;;;;;7.72;44.42;95833.72;5091044;28;20726;-64
2021/03/09 08:24:41;;;;;;;25.30;15.27;;;;;;;7.52;45.40;95833.06;5090925;28;20255;-65
2021/03/09 08:27:39;;;;;;;36.63;16.40;;;;;;;7.63;44.31;95837.13;5090499;28;20196;-65
2021/03/09 08:30:37;;;;;;;34.00;17.33;;;;;;;7.69;43.60;95831.66;5090731;28;20231;-64
2021/03/09 08:33:31;;;;;;;26.10;15.10;;;;;;;8.14;41.95;95837.63;5090611;28;20279;-66
2021/03/09 08:35:59;;;;;;;28.00;17.30;;;;;;;8.14;41.37;95830.63;5090843;28;20643;-64
2021/03/09 08:38:27;;;;;;;31.70;16.93;;;;;;;8.24;41.44;95822.03;5090648;28;20692;-64
2021/03/09 08:41:13;;;;;;;38.73;19.43;;;;;;;8.19;40.56;95816.88;5090646;28;20199;-65
2021/03/09 08:43:43;;;;;;;34.83;19.13;;;;;;;8.44;41.26;95813.38;5090288;28;20296;-64
2021/03/09 08:46:14;;;;;;;29.27;16.20;;;;;;;8.45;41.46;95809.75;5090339;28;20722;-64
2021/03/09 08:48:54;;;;;;;26.00;14.57;;;;;;;8.57;41.75;95810.91;5090565;28;20516;-64
2021/03/09 08:51:52;;;;;;;23.10;15.27;;;;;;;8.50;40.06;95820.06;5090290;28;20204;-64
2021/03/09 08:54:36;;;;;;;23.53;15.07;;;;;;;8.33;42.22;95815.25;5090247;28;20208;-62
2021/03/09 08:57:10;;;;;;;25.00;16.43;;;;;;;8.37;42.23;95818.84;5089628;28;20693;-63
2021/03/09 08:59:38;;;;;;;24.87;15.50;;;;;;;8.49;42.74;95826.28;5090476;28;20203;-64
2021/03/09 09:02:07;;;;;;;27.33;15.00;;;;;;;8.78;41.39;95818.50;5089920;28;20258;-65
2021/03/09 09:04:35;;;;;;;25.80;14.70;;;;;;;9.05;40.62;95814.38;5090143;28;20270;-64
2021/03/09 09:07:18;;;;;;;30.57;16.33;;;;;;;8.87;40.98;95806.50;5090202;28;20671;-64
2021/03/09 09:09:52;;;;;;;27.33;15.10;;;;;;;9.03;40.75;95806.09;5089982;28;20201;-64
2021/03/09 09:12:33;;;;;;;26.80;14.57;;;;;;;9.24;40.54;95811.06;5089965;28;20725;-63
2021/03/09 09:15:16;;;;;;;21.47;13.50;;;;;;;9.08;39.07;95813.03;5090007;28;20200;-64
2021/03/09 09:17:45;;;;;;;32.03;14.50;;;;;;;9.14;39.44;95805.97;5088995;28;20278;-64
2021/03/09 09:20:15;;;;;;;26.90;14.40;;;;;;;9.13;41.35;95802.59;5089936;28;20234;-64
2021/03/09 09:22:43;;;;;;;24.40;15.00;;;;;;;9.24;40.73;95798.88;5089877;28;20687;-64
2021/03/09 09:25:12;;;;;;;25.60;14.33;;;;;;;9.44;39.82;95800.44;5094058;28;20618;-64
2021/03/09 09:27:45;;;;;;;24.73;13.93;;;;;;;9.54;40.29;95802.16;5094079;28;20199;-65
2021/03/09 09:30:15;;;;;;;27.23;15.43;;;;;;;9.48;39.99;95797.03;5094372;28;20207;-64
2021/03/09 09:32:47;;;;;;;36.87;17.83;;;;;;;9.49;40.15;95801.16;5093964;28;20227;-63
2021/03/09 09:35:14;;;;;;;25.97;14.77;;;;;;;8.96;39.31;95800.47;5094096;28;20257;-63
2021/03/09 09:37:57;;;;;;;27.93;15.23;;;;;;;9.31;39.33;95788.16;5093910;28;20647;-64
2021/03/09 09:40:30;;;;;;;30.47;16.37;;;;;;;9.39;39.33;95787.53;5093697;28;20272;-64
2021/03/09 09:43:00;;;;;;;23.80;13.53;;;;;;;9.65;39.47;95785.41;5093865;28;20271;-65
2021/03/09 09:45:28;;;;;;;22.50;13.83;;;;;;;9.58;37.36;95790.94;5093330;28;20231;-64
2021/03/09 09:47:56;;;;;;;21.07;13.43;;;;;;;9.52;37.64;95795.41;5093590;28;20224;-64
2021/03/09 09:50:24;;;;;;;26.07;13.73;;;;;;;9.52;38.70;95792.81;5093578;28;20758;-66
2021/03/09 09:52:59;;;;;;;22.03;12.73;;;;;;;9.42;37.49;95794.75;5093445;28;20221;-65
2021/03/09 09:55:27;;;;;;;29.00;13.37;;;;;;;9.45;38.01;95796.81;5093404;28;20202;-65
2021/03/09 09:57:55;;;;;;;21.37;12.40;;;;;;;9.38;37.33;95786.75;5093345;28;20196;-65
2021/03/09 10:00:25;;;;;;;23.53;13.03;;;;;;;9.49;38.27;95783.00;5093190;28;20290;-64
2021/03/09 10:03:11;;;;;;;22.93;12.80;;;;;;;9.40;37.06;95789.09;5093643;28;20196;-64
2021/03/09 10:05:40;;;;;;;23.20;13.47;;;;;;;9.40;36.91;95781.31;5093359;28;20231;-64
2021/03/09 10:08:09;;;;;;;20.77;12.70;;;;;;;9.34;37.82;95780.59;5093216;28;20731;-64
2021/03/09 10:10:38;;;;;;;20.80;12.73;;;;;;;9.32;37.98;95777.50;5093015;28;20235;-65
2021/03/09 10:13:25;;;;;;;18.50;11.80;;;;;;;9.42;39.01;95774.78;5093122;28;20581;-64
2021/03/09 10:15:52;;;;;;;18.43;11.50;;;;;;;9.69;39.46;95781.97;5092869;28;20577;-64
2021/03/09 10:18:27;;;;;;;21.07;13.03;;;;;;;10.01;38.39;95786.47;5093281;28;20283;-63
2021/03/09 10:21:02;;;;;;;20.10;12.33;;;;;;;10.02;36.12;95779.44;5093170;28;20195;-66
2021/03/09 10:23:32;;;;;;;20.63;13.33;;;;;;;10.05;35.70;95774.47;5092864;28;20557;-65
2021/03/09 10:26:00;;;;;;;24.70;14.07;;;;;;;10.02;36.19;95769.03;5092676;28;20307;-64
2021/03/09 10:28:27;;;;;;;31.97;15.63;;;;;;;10.08;35.78;95758.31;5093318;28;20207;-64
2021/03/09 10:30:55;;;;;;;26.77;13.40;;;;;;;9.94;38.34;95768.66;5092969;28;20290;-64
2021/03/09 10:33:22;;;;;;;24.03;12.67;;;;;;;9.97;38.25;95762.09;5092720;28;20276;-65
2021/03/09 10:36:10;;;;;;;23.80;12.90;;;;;;;10.16;37.93;95768.06;5091911;28;20278;-65
2021/03/09 10:38:38;;;;;;;18.83;11.60;;;;;;;10.21;37.49;95759.47;5092642;28;20202;-65
2021/03/09 10:41:05;;;;;;;19.20;12.33;;;;;;;10.07;37.59;95761.97;5092923;28;20196;-65
2021/03/09 10:43:39;;;;;;;19.60;12.10;;;;;;;10.17;37.24;95756.63;5092489;28;20299;-64
2021/03/09 10:46:06;;;;;;;17.73;11.70;;;;;;;10.38;35.75;95758.91;5092529;28;20377;-65
2021/03/09 10:48:33;;;;;;;26.07;13.03;;;;;;;10.50;34.39;95754.06;5092390;28;20192;-64
2021/03/09 10:51:01;;;;;;;41.53;20.73;;;;;;;10.72;35.81;95747.16;5092226;28;20253;-64
2021/03/09 10:53:27;;;;;;;31.80;16.13;;;;;;;10.73;36.89;95746.09;5092377;28;20192;-64
2021/03/09 10:55:55;;;;;;;28.07;17.73;;;;;;;10.70;39.65;95749.28;5092596;28;20200;-63
2021/03/09 10:58:22;;;;;;;38.37;19.97;;;;;;;10.97;39.91;95748.50;5092215;28;20231;-64
2021/03/09 11:00:49;;;;;;;25.70;15.33;;;;;;;11.05;38.39;95737.44;5092077;28;20314;-65
2021/03/09 11:03:16;;;;;;;29.77;18.30;;;;;;;11.35;39.79;95735.31;5092193;28;20242;-65
2021/03/09 11:05:43;;;;;;;28.93;16.50;;;;;;;11.49;38.47;95738.66;5091927;28;20280;-66
2021/03/09 11:08:10;;;;;;;32.80;18.33;;;;;;;11.59;38.69;95744.41;5092413;28;20559;-65
2021/03/09 11:10:37;;;;;;;29.63;17.23;;;;;;;11.57;38.34;95732.75;5092179;28;20641;-66
2021/03/09 11:13:05;;;;;;;30.40;19.60;;;;;;;11.23;36.86;95731.34;5091994;28;20195;-65
2021/03/09 11:15:32;;;;;;;31.07;17.43;;;;;;;10.89;37.35;95728.38;5091849;28;20273;-65
2021/03/09 11:18:00;;;;;;;32.70;19.60;;;;;;;10.75;39.66;95725.03;5091883;28;20282;-66
2021/03/09 11:20:26;;;;;;;32.27;16.20;;;;;;;10.95;37.61;95722.03;5091655;28;20230;-63
2021/03/09 11:22:53;;;;;;;26.33;17.00;;;;;;;10.96;36.75;95718.34;5091642;28;20287;-66
2021/03/09 11:25:20;;;;;;;33.33;19.90;;;;;;;10.89;36.11;95720.59;5091563;28;20306;-65
2021/03/09 11:27:47;;;;;;;23.37;14.83;;;;;;;10.99;34.64;95717.78;5091623;28;20274;-65
2021/03/09 11:30:17;;;;;;;27.33;16.10;;;;;;;10.99;34.79;95710.00;5091673;28;20270;-65
2021/03/09 11:32:43;;;;;;;30.27;16.07;;;;;;;11.19;35.57;95704.38;5091867;28;20287;-65
2021/03/09 11:35:12;;;;;;;22.90;13.83;;;;;;;11.19;34.58;95704.38;5091921;28;20202;-66